sensor_id;sensor_type;location;lat;lon;timestamp;pressure;altitude;pressure_sealevel;temperature;humidity
47761;BME280;33524;55.434;38.520;2023-04-30T00:01:59;100694.87;;;0.42;82.36
47761;BME280;33524;55.434;38.520;2023-04-30T00:04:28;100711.41;;;0.01;86.88
47761;BME280;33524;55.434;38.520;2023-04-30T00:06:56;100712.28;;;0.35;85.02
47761;BME280;33524;55.434;38.520;2023-04-30T00:09:24;100719.84;;;0.09;85.75
47761;BME280;33524;55.434;38.520;2023-04-30T00:11:52;100692.56;;;-0.05;85.62
47761;BME280;33524;55.434;38.520;2023-04-30T00:14:20;100716.22;;;0.14;85.76
47761;BME280;33524;55.434;38.520;2023-04-30T00:16:48;100718.47;;;-0.06;87.00
47761;BME280;33524;55.434;38.520;2023-04-30T00:19:17;100715.28;;;-0.17;88.20
47761;BME280;33524;55.434;38.520;2023-04-30T00:21:45;100719.13;;;0.02;86.95
47761;BME280;33524;55.434;38.520;2023-04-30T00:24:14;100718.50;;;-0.08;86.24
47761;BME280;33524;55.434;38.520;2023-04-30T00:26:42;100723.50;;;0.00;86.52
47761;BME280;33524;55.434;38.520;2023-04-30T00:29:10;100717.47;;;-0.01;85.56
47761;BME280;33524;55.434;38.520;2023-04-30T00:31:39;100714.41;;;0.54;84.38
47761;BME280;33524;55.434;38.520;2023-04-30T00:34:07;100709.09;;;1.23;79.72
47761;BME280;33524;55.434;38.520;2023-04-30T00:36:35;100711.94;;;1.43;78.26
47761;BME280;33524;55.434;38.520;2023-04-30T00:39:04;100718.91;;;1.41;77.95
47761;BME280;33524;55.434;38.520;2023-04-30T00:41:34;100730.00;;;1.45;77.67
47761;BME280;33524;55.434;38.520;2023-04-30T00:44:03;100728.22;;;1.47;77.31
47761;BME280;33524;55.434;38.520;2023-04-30T00:46:31;100732.09;;;1.33;77.73
47761;BME280;33524;55.434;38.520;2023-04-30T00:48:59;100732.41;;;1.23;78.29
47761;BME280;33524;55.434;38.520;2023-04-30T00:51:32;100736.59;;;1.27;77.93
47761;BME280;33524;55.434;38.520;2023-04-30T00:54:02;100739.97;;;1.30;77.69
47761;BME280;33524;55.434;38.520;2023-04-30T00:56:30;100741.78;;;0.95;78.12
47761;BME280;33524;55.434;38.520;2023-04-30T00:58:58;100742.53;;;0.33;80.56
47761;BME280;33524;55.434;38.520;2023-04-30T01:01:27;100744.69;;;0.14;82.52
47761;BME280;33524;55.434;38.520;2023-04-30T01:03:56;100745.00;;;0.38;82.09
47761;BME280;33524;55.434;38.520;2023-04-30T01:06:24;100724.94;;;0.10;81.90
47761;BME280;33524;55.434;38.520;2023-04-30T01:08:53;100738.03;;;0.04;83.18
47761;BME280;33524;55.434;38.520;2023-04-30T01:14:09;100738.00;;;-0.32;84.75
47761;BME280;33524;55.434;38.520;2023-04-30T01:17:04;100745.41;;;-0.16;83.44
47761;BME280;33524;55.434;38.520;2023-04-30T01:19:42;100740.62;;;-0.74;86.09
47761;BME280;33524;55.434;38.520;2023-04-30T01:28:01;100762.78;;;0.14;84.39
47761;BME280;33524;55.434;38.520;2023-04-30T01:30:35;100788.94;;;0.74;80.15
47761;BME280;33524;55.434;38.520;2023-04-30T01:33:03;100765.59;;;0.05;82.39
47761;BME280;33524;55.434;38.520;2023-04-30T01:40:59;100760.72;;;-1.36;93.47
47761;BME280;33524;55.434;38.520;2023-04-30T01:46:25;100749.06;;;-1.59;98.14
47761;BME280;33524;55.434;38.520;2023-04-30T01:49:17;100737.97;;;-1.66;97.84
47761;BME280;33524;55.434;38.520;2023-04-30T01:51:50;100739.09;;;-1.80;98.90
47761;BME280;33524;55.434;38.520;2023-04-30T01:54:42;100737.44;;;-1.85;100.00
47761;BME280;33524;55.434;38.520;2023-04-30T01:57:20;100699.69;;;-1.90;100.00
47761;BME280;33524;55.434;38.520;2023-04-30T01:59:50;100714.19;;;-1.81;100.00
47761;BME280;33524;55.434;38.520;2023-04-30T02:02:19;100726.56;;;-1.51;100.00
47761;BME280;33524;55.434;38.520;2023-04-30T02:04:47;100721.25;;;-1.42;98.97
47761;BME280;33524;55.434;38.520;2023-04-30T02:07:31;100712.44;;;-0.86;94.15
47761;BME280;33524;55.434;38.520;2023-04-30T02:10:06;100716.72;;;-0.85;92.50
47761;BME280;33524;55.434;38.520;2023-04-30T02:12:35;100709.31;;;-1.02;93.25
47761;BME280;33524;55.434;38.520;2023-04-30T02:15:04;100711.53;;;-1.29;96.53
47761;BME280;33524;55.434;38.520;2023-04-30T02:17:32;100707.34;;;-0.47;91.97
47761;BME280;33524;55.434;38.520;2023-04-30T02:20:00;100712.91;;;-0.66;90.61
47761;BME280;33524;55.434;38.520;2023-04-30T02:22:31;100718.63;;;-0.12;88.05
47761;BME280;33524;55.434;38.520;2023-04-30T02:24:59;100695.38;;;0.20;84.80
47761;BME280;33524;55.434;38.520;2023-04-30T02:27:32;100710.88;;;0.56;82.88
47761;BME280;33524;55.434;38.520;2023-04-30T02:30:00;100690.84;;;-0.04;85.41
47761;BME280;33524;55.434;38.520;2023-04-30T02:32:32;100699.91;;;-0.24;87.99
47761;BME280;33524;55.434;38.520;2023-04-30T02:35:00;100698.25;;;0.10;86.13
47761;BME280;33524;55.434;38.520;2023-04-30T02:37:30;100696.22;;;0.55;83.16
47761;BME280;33524;55.434;38.520;2023-04-30T02:39:58;100700.88;;;0.08;85.84
47761;BME280;33524;55.434;38.520;2023-04-30T02:42:26;100692.59;;;0.30;84.77
47761;BME280;33524;55.434;38.520;2023-04-30T02:44:54;100696.50;;;0.10;87.80
47761;BME280;33524;55.434;38.520;2023-04-30T02:47:22;100680.34;;;-0.35;93.52
47761;BME280;33524;55.434;38.520;2023-04-30T02:49:51;100696.75;;;-0.36;96.88
47761;BME280;33524;55.434;38.520;2023-04-30T02:52:19;100699.41;;;-0.02;91.90
47761;BME280;33524;55.434;38.520;2023-04-30T02:54:47;100697.87;;;0.25;89.28
47761;BME280;33524;55.434;38.520;2023-04-30T02:57:16;100677.22;;;0.24;87.93
47761;BME280;33524;55.434;38.520;2023-04-30T02:59:44;100702.72;;;0.72;84.45
47761;BME280;33524;55.434;38.520;2023-04-30T03:02:13;100680.87;;;0.80;83.63
47761;BME280;33524;55.434;38.520;2023-04-30T03:04:41;100687.44;;;0.63;86.90
47761;BME280;33524;55.434;38.520;2023-04-30T03:07:09;100666.84;;;0.25;91.10
47761;BME280;33524;55.434;38.520;2023-04-30T03:09:38;100678.56;;;0.38;92.13
47761;BME280;33524;55.434;38.520;2023-04-30T03:12:06;100658.81;;;0.36;92.46
47761;BME280;33524;55.434;38.520;2023-04-30T03:14:34;100660.56;;;0.67;90.32
47761;BME280;33524;55.434;38.520;2023-04-30T03:17:02;100667.72;;;1.48;82.26
47761;BME280;33524;55.434;38.520;2023-04-30T03:19:30;100663.53;;;1.44;84.51
47761;BME280;33524;55.434;38.520;2023-04-30T03:21:58;100668.28;;;1.86;80.05
47761;BME280;33524;55.434;38.520;2023-04-30T03:24:27;100664.28;;;1.75;83.99
47761;BME280;33524;55.434;38.520;2023-04-30T03:26:55;100659.88;;;1.77;83.60
47761;BME280;33524;55.434;38.520;2023-04-30T03:29:23;100662.91;;;2.17;80.26
47761;BME280;33524;55.434;38.520;2023-04-30T03:31:51;100657.22;;;2.32;80.62
47761;BME280;33524;55.434;38.520;2023-04-30T03:34:20;100649.69;;;2.25;85.39
47761;BME280;33524;55.434;38.520;2023-04-30T03:36:48;100632.44;;;2.24;86.34
47761;BME280;33524;55.434;38.520;2023-04-30T03:39:16;100632.53;;;2.46;83.66
47761;BME280;33524;55.434;38.520;2023-04-30T03:41:44;100643.56;;;2.52;84.70
47761;BME280;33524;55.434;38.520;2023-04-30T03:44:12;100631.34;;;2.79;80.99
47761;BME280;33524;55.434;38.520;2023-04-30T03:46:42;100636.84;;;3.17;77.39
47761;BME280;33524;55.434;38.520;2023-04-30T03:49:11;100627.94;;;3.25;77.00
47761;BME280;33524;55.434;38.520;2023-04-30T03:51:39;100631.78;;;3.36;76.95
47761;BME280;33524;55.434;38.520;2023-04-30T03:54:08;100638.81;;;3.56;76.64
47761;BME280;33524;55.434;38.520;2023-04-30T03:56:37;100636.97;;;3.60;79.83
47761;BME280;33524;55.434;38.520;2023-04-30T03:59:05;100639.63;;;3.80;76.21
47761;BME280;33524;55.434;38.520;2023-04-30T04:01:33;100629.34;;;3.98;75.40
47761;BME280;33524;55.434;38.520;2023-04-30T04:04:02;100633.63;;;3.99;76.39
47761;BME280;33524;55.434;38.520;2023-04-30T04:06:31;100631.97;;;4.18;75.38
47761;BME280;33524;55.434;38.520;2023-04-30T04:08:59;100627.37;;;4.44;74.50
47761;BME280;33524;55.434;38.520;2023-04-30T04:11:27;100622.81;;;4.70;73.38
47761;BME280;33524;55.434;38.520;2023-04-30T04:13:56;100618.00;;;4.60;76.21
47761;BME280;33524;55.434;38.520;2023-04-30T04:16:25;100624.88;;;4.82;73.79
47761;BME280;33524;55.434;38.520;2023-04-30T04:18:53;100619.72;;;4.99;75.51
47761;BME280;33524;55.434;38.520;2023-04-30T04:21:22;100612.84;;;4.98;74.99
47761;BME280;33524;55.434;38.520;2023-04-30T04:23:50;100608.75;;;5.12;79.65
47761;BME280;33524;55.434;38.520;2023-04-30T04:26:18;100609.44;;;5.34;74.67
47761;BME280;33524;55.434;38.520;2023-04-30T04:28:48;100603.25;;;5.18;83.67
47761;BME280;33524;55.434;38.520;2023-04-30T04:31:16;100600.56;;;5.56;80.17
47761;BME280;33524;55.434;38.520;2023-04-30T04:33:46;100604.38;;;5.85;76.29
47761;BME280;33524;55.434;38.520;2023-04-30T04:36:15;100600.50;;;6.62;73.17
47761;BME280;33524;55.434;38.520;2023-04-30T04:38:44;100577.84;;;6.78;74.48
47761;BME280;33524;55.434;38.520;2023-04-30T04:41:13;100600.47;;;7.27;72.38
47761;BME280;33524;55.434;38.520;2023-04-30T04:43:44;100586.19;;;6.85;77.01
47761;BME280;33524;55.434;38.520;2023-04-30T04:46:12;100572.63;;;6.94;78.50
47761;BME280;33524;55.434;38.520;2023-04-30T04:48:43;100576.53;;;7.65;74.16
47761;BME280;33524;55.434;38.520;2023-04-30T04:51:11;100578.47;;;7.92;73.60
47761;BME280;33524;55.434;38.520;2023-04-30T04:53:40;100582.00;;;7.60;76.18
47761;BME280;33524;55.434;38.520;2023-04-30T04:56:09;100575.59;;;7.96;74.63
47761;BME280;33524;55.434;38.520;2023-04-30T04:58:37;100558.38;;;8.51;73.67
47761;BME280;33524;55.434;38.520;2023-04-30T05:01:07;100555.94;;;8.62;73.09
47761;BME280;33524;55.434;38.520;2023-04-30T05:03:35;100555.94;;;8.77;73.70
47761;BME280;33524;55.434;38.520;2023-04-30T05:06:04;100563.38;;;8.25;72.86
47761;BME280;33524;55.434;38.520;2023-04-30T05:08:33;100567.94;;;8.52;73.47
47761;BME280;33524;55.434;38.520;2023-04-30T05:11:01;100562.47;;;8.69;74.36
47761;BME280;33524;55.434;38.520;2023-04-30T05:13:29;100556.31;;;8.71;74.91
47761;BME280;33524;55.434;38.520;2023-04-30T05:15:57;100556.28;;;7.83;73.16
47761;BME280;33524;55.434;38.520;2023-04-30T05:18:25;100553.00;;;8.96;74.29
47761;BME280;33524;55.434;38.520;2023-04-30T05:20:53;100558.25;;;8.81;75.79
47761;BME280;33524;55.434;38.520;2023-04-30T05:23:22;100550.47;;;9.88;71.52
47761;BME280;33524;55.434;38.520;2023-04-30T05:25:53;100547.22;;;9.45;72.38
47761;BME280;33524;55.434;38.520;2023-04-30T05:28:22;100549.41;;;9.78;70.60
47761;BME280;33524;55.434;38.520;2023-04-30T05:30:50;100556.94;;;9.70;70.93
47761;BME280;33524;55.434;38.520;2023-04-30T05:33:18;100550.81;;;10.22;70.46
47761;BME280;33524;55.434;38.520;2023-04-30T05:35:46;100543.03;;;10.59;69.56
47761;BME280;33524;55.434;38.520;2023-04-30T05:38:15;100549.34;;;10.31;69.47
47761;BME280;33524;55.434;38.520;2023-04-30T05:40:43;100530.06;;;10.56;69.61
47761;BME280;33524;55.434;38.520;2023-04-30T05:43:12;100544.50;;;11.00;68.24
47761;BME280;33524;55.434;38.520;2023-04-30T05:45:40;100542.13;;;11.21;67.35
47761;BME280;33524;55.434;38.520;2023-04-30T05:48:08;100532.88;;;10.79;67.29
47761;BME280;33524;55.434;38.520;2023-04-30T05:50:36;100546.78;;;11.77;66.01
47761;BME280;33524;55.434;38.520;2023-04-30T05:53:04;100552.09;;;11.88;60.94
47761;BME280;33524;55.434;38.520;2023-04-30T05:55:32;100551.47;;;12.65;62.94
47761;BME280;33524;55.434;38.520;2023-04-30T05:58:01;100556.09;;;11.22;64.43
47761;BME280;33524;55.434;38.520;2023-04-30T06:00:29;100556.78;;;11.96;64.90
47761;BME280;33524;55.434;38.520;2023-04-30T06:02:58;100554.78;;;12.00;65.70
47761;BME280;33524;55.434;38.520;2023-04-30T06:05:26;100565.56;;;12.08;65.90
47761;BME280;33524;55.434;38.520;2023-04-30T06:07:54;100557.09;;;12.16;64.88
47761;BME280;33524;55.434;38.520;2023-04-30T06:10:22;100552.19;;;12.79;64.03
47761;BME280;33524;55.434;38.520;2023-04-30T06:12:51;100567.28;;;11.85;65.31
47761;BME280;33524;55.434;38.520;2023-04-30T06:15:19;100569.91;;;11.85;65.76
47761;BME280;33524;55.434;38.520;2023-04-30T06:17:47;100575.84;;;13.24;61.92
47761;BME280;33524;55.434;38.520;2023-04-30T06:20:15;100574.47;;;13.08;63.40
47761;BME280;33524;55.434;38.520;2023-04-30T06:22:43;100575.97;;;13.66;61.51
47761;BME280;33524;55.434;38.520;2023-04-30T06:25:12;100566.31;;;13.76;60.65
47761;BME280;33524;55.434;38.520;2023-04-30T06:27:40;100579.34;;;13.36;59.36
47761;BME280;33524;55.434;38.520;2023-04-30T06:30:08;100580.34;;;14.09;59.21
47761;BME280;33524;55.434;38.520;2023-04-30T06:32:37;100578.66;;;11.85;52.69
47761;BME280;33524;55.434;38.520;2023-04-30T06:35:05;100566.72;;;13.39;62.19
47761;BME280;33524;55.434;38.520;2023-04-30T06:37:33;100566.97;;;13.36;59.73
47761;BME280;33524;55.434;38.520;2023-04-30T06:40:05;100557.34;;;13.35;55.39
47761;BME280;33524;55.434;38.520;2023-04-30T06:42:34;100562.19;;;13.30;54.88
47761;BME280;33524;55.434;38.520;2023-04-30T06:45:03;100551.72;;;14.14;58.50
47761;BME280;33524;55.434;38.520;2023-04-30T06:47:34;100534.00;;;13.51;57.33
47761;BME280;33524;55.434;38.520;2023-04-30T06:50:05;100550.19;;;13.15;54.47
47761;BME280;33524;55.434;38.520;2023-04-30T06:52:34;100536.97;;;14.21;57.81
47761;BME280;33524;55.434;38.520;2023-04-30T06:55:02;100528.47;;;14.18;56.69
47761;BME280;33524;55.434;38.520;2023-04-30T06:57:30;100533.44;;;12.93;54.04
47761;BME280;33524;55.434;38.520;2023-04-30T06:59:59;100526.75;;;13.65;54.92
47761;BME280;33524;55.434;38.520;2023-04-30T07:02:32;100524.16;;;14.88;53.67
47761;BME280;33524;55.434;38.520;2023-04-30T07:05:01;100526.53;;;13.99;55.45
47761;BME280;33524;55.434;38.520;2023-04-30T07:07:41;100513.25;;;14.62;55.98
47761;BME280;33524;55.434;38.520;2023-04-30T07:10:22;100510.72;;;14.60;56.68
47761;BME280;33524;55.434;38.520;2023-04-30T07:12:51;100511.00;;;14.05;57.02
47761;BME280;33524;55.434;38.520;2023-04-30T07:15:19;100488.69;;;13.98;50.64
47761;BME280;33524;55.434;38.520;2023-04-30T07:17:47;100501.13;;;14.38;49.40
47761;BME280;33524;55.434;38.520;2023-04-30T07:20:16;100485.84;;;14.92;56.92
47761;BME280;33524;55.434;38.520;2023-04-30T07:22:44;100488.19;;;14.85;55.95
47761;BME280;33524;55.434;38.520;2023-04-30T07:25:13;100475.13;;;13.28;50.30
47761;BME280;33524;55.434;38.520;2023-04-30T07:27:41;100475.69;;;13.85;55.13
47761;BME280;33524;55.434;38.520;2023-04-30T07:30:10;100462.41;;;13.76;58.80
47761;BME280;33524;55.434;38.520;2023-04-30T07:32:38;100459.12;;;14.54;56.69
47761;BME280;33524;55.434;38.520;2023-04-30T07:35:08;100439.09;;;14.21;56.96
47761;BME280;33524;55.434;38.520;2023-04-30T07:37:37;100446.91;;;14.63;56.30
47761;BME280;33524;55.434;38.520;2023-04-30T07:40:07;100446.84;;;14.44;56.72
47761;BME280;33524;55.434;38.520;2023-04-30T07:42:56;100432.00;;;14.62;55.96
47761;BME280;33524;55.434;38.520;2023-04-30T07:45:24;100433.03;;;14.30;55.49
47761;BME280;33524;55.434;38.520;2023-04-30T07:47:52;100425.22;;;13.67;55.93
47761;BME280;33524;55.434;38.520;2023-04-30T07:50:23;100418.47;;;13.75;48.32
47761;BME280;33524;55.434;38.520;2023-04-30T07:52:52;100413.69;;;14.40;55.27
47761;BME280;33524;55.434;38.520;2023-04-30T07:55:20;100400.75;;;13.44;56.74
47761;BME280;33524;55.434;38.520;2023-04-30T07:57:48;100391.47;;;13.81;55.31
47761;BME280;33524;55.434;38.520;2023-04-30T08:00:16;100396.06;;;13.79;54.10
47761;BME280;33524;55.434;38.520;2023-04-30T08:02:45;100396.41;;;14.36;55.83
47761;BME280;33524;55.434;38.520;2023-04-30T08:05:15;100386.00;;;13.42;48.74
47761;BME280;33524;55.434;38.520;2023-04-30T08:07:43;100381.66;;;13.20;44.77
47761;BME280;33524;55.434;38.520;2023-04-30T08:10:11;100359.34;;;14.16;48.78
47761;BME280;33524;55.434;38.520;2023-04-30T08:12:40;100354.84;;;13.45;47.37
47761;BME280;33524;55.434;38.520;2023-04-30T08:15:08;100347.16;;;13.32;47.89
47761;BME280;33524;55.434;38.520;2023-04-30T08:17:36;100350.47;;;14.46;55.60
47761;BME280;33524;55.434;38.520;2023-04-30T08:20:05;100342.13;;;13.08;50.81
47761;BME280;33524;55.434;38.520;2023-04-30T08:22:33;100338.37;;;11.46;44.44
47761;BME280;33524;55.434;38.520;2023-04-30T08:25:02;100332.94;;;13.55;51.73
47761;BME280;33524;55.434;38.520;2023-04-30T08:27:30;100315.91;;;15.16;52.28
47761;BME280;33524;55.434;38.520;2023-04-30T08:29:59;100309.41;;;14.81;52.78
47761;BME280;33524;55.434;38.520;2023-04-30T08:32:35;100313.12;;;14.20;49.21
47761;BME280;33524;55.434;38.520;2023-04-30T08:35:04;100282.44;;;15.25;49.77
47761;BME280;33524;55.434;38.520;2023-04-30T08:37:33;100298.25;;;17.51;47.46
47761;BME280;33524;55.434;38.520;2023-04-30T08:40:02;100300.66;;;17.71;45.53
47761;BME280;33524;55.434;38.520;2023-04-30T08:42:35;100288.78;;;16.79;41.67
47761;BME280;33524;55.434;38.520;2023-04-30T08:45:05;100294.09;;;17.91;46.19
47761;BME280;33524;55.434;38.520;2023-04-30T08:47:36;100296.88;;;18.32;44.64
47761;BME280;33524;55.434;38.520;2023-04-30T08:50:09;100291.28;;;17.59;46.46
47761;BME280;33524;55.434;38.520;2023-04-30T08:52:44;100291.09;;;19.03;44.56
47761;BME280;33524;55.434;38.520;2023-04-30T08:55:13;100281.25;;;14.90;37.31
47761;BME280;33524;55.434;38.520;2023-04-30T08:57:41;100284.44;;;14.54;38.66
47761;BME280;33524;55.434;38.520;2023-04-30T09:00:10;100272.06;;;15.31;52.23
47761;BME280;33524;55.434;38.520;2023-04-30T09:02:40;100269.56;;;14.63;47.57
47761;BME280;33524;55.434;38.520;2023-04-30T09:05:13;100265.78;;;12.42;42.13
47761;BME280;33524;55.434;38.520;2023-04-30T09:07:44;100254.03;;;15.07;55.21
47761;BME280;33524;55.434;38.520;2023-04-30T09:10:25;100246.56;;;14.73;43.52
47761;BME280;33524;55.434;38.520;2023-04-30T09:13:07;100256.47;;;15.38;41.58
47761;BME280;33524;55.434;38.520;2023-04-30T09:15:37;100254.09;;;14.29;45.14
47761;BME280;33524;55.434;38.520;2023-04-30T09:18:13;100245.31;;;15.34;50.67
47761;BME280;33524;55.434;38.520;2023-04-30T09:20:59;100227.63;;;16.88;48.93
47761;BME280;33524;55.434;38.520;2023-04-30T09:23:32;100236.38;;;16.45;40.79
47761;BME280;33524;55.434;38.520;2023-04-30T09:26:00;100230.63;;;15.78;50.34
47761;BME280;33524;55.434;38.520;2023-04-30T09:28:28;100239.38;;;14.56;51.52
47761;BME280;33524;55.434;38.520;2023-04-30T09:30:58;100225.69;;;14.61;40.43
47761;BME280;33524;55.434;38.520;2023-04-30T09:33:26;100233.63;;;14.12;43.45
47761;BME280;33524;55.434;38.520;2023-04-30T09:36:08;100241.72;;;14.69;53.58
47761;BME280;33524;55.434;38.520;2023-04-30T09:38:48;100242.00;;;15.23;42.57
47761;BME280;33524;55.434;38.520;2023-04-30T09:41:29;100236.53;;;13.89;41.53
47761;BME280;33524;55.434;38.520;2023-04-30T09:43:58;100240.72;;;14.50;54.87
47761;BME280;33524;55.434;38.520;2023-04-30T09:46:31;100241.81;;;17.31;47.12
47761;BME280;33524;55.434;38.520;2023-04-30T09:49:02;100246.53;;;15.68;51.57
47761;BME280;33524;55.434;38.520;2023-04-30T09:51:31;100240.97;;;14.96;43.53
47761;BME280;33524;55.434;38.520;2023-04-30T09:54:02;100236.75;;;13.05;41.70
47761;BME280;33524;55.434;38.520;2023-04-30T09:56:34;100244.66;;;14.37;52.50
47761;BME280;33524;55.434;38.520;2023-04-30T09:59:06;100233.00;;;15.06;42.41
47761;BME280;33524;55.434;38.520;2023-04-30T10:01:37;100241.59;;;14.61;46.65
47761;BME280;33524;55.434;38.520;2023-04-30T10:04:08;100238.78;;;14.04;50.79
47761;BME280;33524;55.434;38.520;2023-04-30T10:06:41;100227.84;;;16.15;50.24
47761;BME280;33524;55.434;38.520;2023-04-30T10:09:10;100230.94;;;16.46;49.26
47761;BME280;33524;55.434;38.520;2023-04-30T10:11:43;100233.91;;;16.07;49.61
47761;BME280;33524;55.434;38.520;2023-04-30T10:14:26;100236.59;;;16.69;48.47
47761;BME280;33524;55.434;38.520;2023-04-30T10:17:17;100247.31;;;15.88;45.21
47761;BME280;33524;55.434;38.520;2023-04-30T10:19:49;100244.84;;;15.02;50.13
47761;BME280;33524;55.434;38.520;2023-04-30T10:22:20;100252.34;;;15.53;51.35
47761;BME280;33524;55.434;38.520;2023-04-30T10:24:49;100244.47;;;16.35;48.76
47761;BME280;33524;55.434;38.520;2023-04-30T10:27:18;100247.72;;;15.28;47.75
47761;BME280;33524;55.434;38.520;2023-04-30T10:29:47;100242.41;;;14.61;44.08
47761;BME280;33524;55.434;38.520;2023-04-30T10:35:32;100245.97;;;13.82;42.69
47761;BME280;33524;55.434;38.520;2023-04-30T10:38:17;100234.97;;;15.69;49.91
47761;BME280;33524;55.434;38.520;2023-04-30T10:41:00;100232.63;;;13.93;44.01
47761;BME280;33524;55.434;38.520;2023-04-30T10:43:30;100243.53;;;14.68;50.63
47761;BME280;33524;55.434;38.520;2023-04-30T10:46:01;100238.16;;;13.81;44.42
47761;BME280;33524;55.434;38.520;2023-04-30T10:48:33;100233.94;;;13.59;43.98
47761;BME280;33524;55.434;38.520;2023-04-30T10:51:02;100235.44;;;13.51;55.26
47761;BME280;33524;55.434;38.520;2023-04-30T10:53:31;100232.88;;;13.09;47.76
47761;BME280;33524;55.434;38.520;2023-04-30T10:56:12;100223.69;;;13.85;50.79
47761;BME280;33524;55.434;38.520;2023-04-30T10:58:41;100221.81;;;13.46;47.19
47761;BME280;33524;55.434;38.520;2023-04-30T11:01:13;100221.50;;;13.19;45.19
47761;BME280;33524;55.434;38.520;2023-04-30T11:04:09;100200.75;;;14.63;49.04
47761;BME280;33524;55.434;38.520;2023-04-30T11:07:01;100200.50;;;14.57;52.91
47761;BME280;33524;55.434;38.520;2023-04-30T11:09:42;100189.72;;;14.78;52.78
47761;BME280;33524;55.434;38.520;2023-04-30T11:12:20;100196.47;;;14.62;51.31
47761;BME280;33524;55.434;38.520;2023-04-30T11:15:11;100197.91;;;13.17;54.87
47761;BME280;33524;55.434;38.520;2023-04-30T11:17:43;100174.12;;;14.75;51.20
47761;BME280;33524;55.434;38.520;2023-04-30T11:20:18;100167.78;;;14.28;51.98
47761;BME280;33524;55.434;38.520;2023-04-30T11:25:45;100155.25;;;13.62;54.66
47761;BME280;33524;55.434;38.520;2023-04-30T11:28:17;100144.12;;;14.37;52.01
47761;BME280;33524;55.434;38.520;2023-04-30T11:30:53;100143.59;;;14.04;50.70
47761;BME280;33524;55.434;38.520;2023-04-30T11:33:23;100146.63;;;12.58;53.90
47761;BME280;33524;55.434;38.520;2023-04-30T11:35:54;100141.03;;;12.51;49.40
47761;BME280;33524;55.434;38.520;2023-04-30T11:38:28;100153.28;;;13.55;54.97
47761;BME280;33524;55.434;38.520;2023-04-30T11:40:57;100153.25;;;13.14;55.86
47761;BME280;33524;55.434;38.520;2023-04-30T11:43:28;100145.09;;;13.17;54.40
47761;BME280;33524;55.434;38.520;2023-04-30T11:48:34;100140.53;;;13.79;53.31
47761;BME280;33524;55.434;38.520;2023-04-30T11:51:17;100135.69;;;14.70;51.42
47761;BME280;33524;55.434;38.520;2023-04-30T11:53:50;100131.87;;;13.17;53.49
47761;BME280;33524;55.434;38.520;2023-04-30T11:56:23;100126.16;;;14.01;53.06
47761;BME280;33524;55.434;38.520;2023-04-30T11:58:52;100136.59;;;13.54;48.40
47761;BME280;33524;55.434;38.520;2023-04-30T12:01:26;100136.44;;;13.05;51.42
47761;BME280;33524;55.434;38.520;2023-04-30T12:04:08;100125.06;;;13.84;53.07
47761;BME280;33524;55.434;38.520;2023-04-30T12:06:37;100134.25;;;13.61;51.95
47761;BME280;33524;55.434;38.520;2023-04-30T12:09:11;100131.84;;;13.38;50.41
47761;BME280;33524;55.434;38.520;2023-04-30T12:11:43;100114.09;;;13.19;53.71
47761;BME280;33524;55.434;38.520;2023-04-30T12:14:13;100127.91;;;13.32;53.41
47761;BME280;33524;55.434;38.520;2023-04-30T12:16:59;100121.34;;;12.86;54.49
47761;BME280;33524;55.434;38.520;2023-04-30T12:19:40;100133.38;;;13.00;54.21
47761;BME280;33524;55.434;38.520;2023-04-30T12:22:09;100129.34;;;12.75;53.56
47761;BME280;33524;55.434;38.520;2023-04-30T12:24:41;100118.19;;;12.62;52.98
47761;BME280;33524;55.434;38.520;2023-04-30T12:27:33;100121.38;;;12.35;55.51
47761;BME280;33524;55.434;38.520;2023-04-30T12:30:08;100115.75;;;12.07;55.49
47761;BME280;33524;55.434;38.520;2023-04-30T12:32:51;100109.91;;;12.24;55.93
47761;BME280;33524;55.434;38.520;2023-04-30T12:35:22;100111.22;;;12.30;55.23
47761;BME280;33524;55.434;38.520;2023-04-30T12:37:54;100126.88;;;11.89;56.38
47761;BME280;33524;55.434;38.520;2023-04-30T12:40:47;100132.44;;;11.64;56.11
47761;BME280;33524;55.434;38.520;2023-04-30T12:43:22;100120.09;;;11.64;57.46
47761;BME280;33524;55.434;38.520;2023-04-30T12:45:53;100121.19;;;11.62;56.59
47761;BME280;33524;55.434;38.520;2023-04-30T12:48:43;100130.97;;;10.60;60.50
47761;BME280;33524;55.434;38.520;2023-04-30T12:51:18;100133.38;;;10.74;59.53
47761;BME280;33524;55.434;38.520;2023-04-30T12:53:46;100125.44;;;10.05;62.34
47761;BME280;33524;55.434;38.520;2023-04-30T12:56:18;100130.81;;;9.31;65.89
47761;BME280;33524;55.434;38.520;2023-04-30T12:59:00;100141.06;;;9.47;65.27
47761;BME280;33524;55.434;38.520;2023-04-30T13:01:31;100131.00;;;8.91;68.45
47761;BME280;33524;55.434;38.520;2023-04-30T13:04:15;100123.88;;;8.80;69.16
47761;BME280;33524;55.434;38.520;2023-04-30T13:06:44;100126.31;;;8.71;69.81
47761;BME280;33524;55.434;38.520;2023-04-30T13:09:16;100113.09;;;8.59;70.31
47761;BME280;33524;55.434;38.520;2023-04-30T13:11:46;100124.41;;;9.35;67.88
47761;BME280;33524;55.434;38.520;2023-04-30T13:14:15;100119.69;;;8.78;71.39
47761;BME280;33524;55.434;38.520;2023-04-30T13:16:44;100125.69;;;8.54;72.40
47761;BME280;33524;55.434;38.520;2023-04-30T13:19:14;100114.97;;;8.57;71.38
47761;BME280;33524;55.434;38.520;2023-04-30T13:21:43;100106.59;;;8.52;71.46
47761;BME280;33524;55.434;38.520;2023-04-30T13:24:11;100101.69;;;8.47;73.74
47761;BME280;33524;55.434;38.520;2023-04-30T13:26:39;100085.63;;;8.52;73.59
47761;BME280;33524;55.434;38.520;2023-04-30T13:29:08;100092.97;;;8.47;73.88